sensor_id;sensor_type;location;lat;lon;timestamp;temperature;humidity
2565;DHT22;1292;48.020;7.822;2023-06-26T05:45:18;21.90;99.90
2565;DHT22;1292;48.020;7.822;2023-06-26T05:47:45;22.00;99.90
2565;DHT22;1292;48.020;7.822;2023-06-26T05:50:13;22.10;99.90
2565;DHT22;1292;48.020;7.822;2023-06-26T05:52:40;22.30;99.90
2565;DHT22;1292;48.020;7.822;2023-06-26T05:55:08;22.40;99.90
2565;DHT22;1292;48.020;7.822;2023-06-26T05:57:37;22.50;99.90
2565;DHT22;1292;48.020;7.822;2023-06-26T06:00:05;22.70;99.90
2565;DHT22;1292;48.020;7.822;2023-06-26T06:02:37;22.80;99.90
2565;DHT22;1292;48.020;7.822;2023-06-26T06:05:05;22.90;99.90
2565;DHT22;1292;48.020;7.822;2023-06-26T06:07:32;23.00;99.90
2565;DHT22;1292;48.020;7.822;2023-06-26T06:10:00;23.20;99.90
2565;DHT22;1292;48.020;7.822;2023-06-26T06:12:27;23.30;99.90
2565;DHT22;1292;48.020;7.822;2023-06-26T06:14:53;23.40;99.90
2565;DHT22;1292;48.020;7.822;2023-06-26T06:17:21;23.50;99.90
2565;DHT22;1292;48.020;7.822;2023-06-26T06:19:49;23.60;99.90
2565;DHT22;1292;48.020;7.822;2023-06-26T06:22:16;23.70;99.90
2565;DHT22;1292;48.020;7.822;2023-06-26T06:24:43;23.90;99.90
2565;DHT22;1292;48.020;7.822;2023-06-26T06:27:10;24.00;99.90
2565;DHT22;1292;48.020;7.822;2023-06-26T06:29:38;24.20;99.90
2565;DHT22;1292;48.020;7.822;2023-06-26T06:32:06;24.30;99.90
2565;DHT22;1292;48.020;7.822;2023-06-26T06:34:33;24.50;99.90
2565;DHT22;1292;48.020;7.822;2023-06-26T06:37:02;24.60;99.90
2565;DHT22;1292;48.020;7.822;2023-06-26T06:39:29;24.70;99.90
2565;DHT22;1292;48.020;7.822;2023-06-26T06:41:55;24.80;99.90
2565;DHT22;1292;48.020;7.822;2023-06-26T06:44:22;24.90;99.90
2565;DHT22;1292;48.020;7.822;2023-06-26T06:46:49;25.00;99.90
2565;DHT22;1292;48.020;7.822;2023-06-26T06:49:16;25.10;99.90
2565;DHT22;1292;48.020;7.822;2023-06-26T06:51:43;25.20;99.90
2565;DHT22;1292;48.020;7.822;2023-06-26T06:54:11;25.20;99.90
2565;DHT22;1292;48.020;7.822;2023-06-26T06:56:38;25.30;99.90
2565;DHT22;1292;48.020;7.822;2023-06-26T06:59:04;25.40;99.90
2565;DHT22;1292;48.020;7.822;2023-06-26T07:01:32;25.50;99.90
2565;DHT22;1292;48.020;7.822;2023-06-26T07:03:58;25.60;99.90
2565;DHT22;1292;48.020;7.822;2023-06-26T07:06:25;25.70;99.90
2565;DHT22;1292;48.020;7.822;2023-06-26T07:08:52;25.70;99.90
2565;DHT22;1292;48.020;7.822;2023-06-26T07:11:20;25.80;99.90
2565;DHT22;1292;48.020;7.822;2023-06-26T07:13:47;25.80;99.90
2565;DHT22;1292;48.020;7.822;2023-06-26T07:16:14;25.90;99.90
2565;DHT22;1292;48.020;7.822;2023-06-26T07:18:41;25.90;99.90
2565;DHT22;1292;48.020;7.822;2023-06-26T07:21:08;26.00;99.90
2565;DHT22;1292;48.020;7.822;2023-06-26T07:23:35;26.00;99.90
2565;DHT22;1292;48.020;7.822;2023-06-26T07:26:02;26.00;99.90
2565;DHT22;1292;48.020;7.822;2023-06-26T07:28:30;26.10;99.90
2565;DHT22;1292;48.020;7.822;2023-06-26T07:30:57;26.10;99.90
2565;DHT22;1292;48.020;7.822;2023-06-26T07:33:24;26.20;99.90
2565;DHT22;1292;48.020;7.822;2023-06-26T07:35:51;26.30;99.90
2565;DHT22;1292;48.020;7.822;2023-06-26T07:38:17;26.30;99.90
2565;DHT22;1292;48.020;7.822;2023-06-26T07:40:44;26.40;99.90
2565;DHT22;1292;48.020;7.822;2023-06-26T07:43:11;26.40;99.90
2565;DHT22;1292;48.020;7.822;2023-06-26T07:45:40;26.50;99.90
2565;DHT22;1292;48.020;7.822;2023-06-26T07:48:07;26.50;99.90
2565;DHT22;1292;48.020;7.822;2023-06-26T07:50:34;26.60;99.90
2565;DHT22;1292;48.020;7.822;2023-06-26T07:53:01;26.70;99.90
2565;DHT22;1292;48.020;7.822;2023-06-26T07:55:28;26.70;99.90
2565;DHT22;1292;48.020;7.822;2023-06-26T07:57:55;26.80;99.90
2565;DHT22;1292;48.020;7.822;2023-06-26T08:00:22;26.90;99.90
2565;DHT22;1292;48.020;7.822;2023-06-26T08:02:50;27.00;99.90
2565;DHT22;1292;48.020;7.822;2023-06-26T08:05:17;27.20;99.90
2565;DHT22;1292;48.020;7.822;2023-06-26T08:07:44;27.30;99.90
2565;DHT22;1292;48.020;7.822;2023-06-26T08:10:11;27.30;99.90
2565;DHT22;1292;48.020;7.822;2023-06-26T08:12:37;27.40;99.90
2565;DHT22;1292;48.020;7.822;2023-06-26T08:15:06;27.40;99.90
2565;DHT22;1292;48.020;7.822;2023-06-26T08:17:34;27.50;99.90
2565;DHT22;1292;48.020;7.822;2023-06-26T08:20:03;27.60;99.90
2565;DHT22;1292;48.020;7.822;2023-06-26T08:22:30;27.60;99.90
2565;DHT22;1292;48.020;7.822;2023-06-26T08:24:57;27.50;99.90
2565;DHT22;1292;48.020;7.822;2023-06-26T08:27:24;27.60;99.90
2565;DHT22;1292;48.020;7.822;2023-06-26T08:29:51;27.70;99.90
2565;DHT22;1292;48.020;7.822;2023-06-26T08:32:18;27.50;99.90
2565;DHT22;1292;48.020;7.822;2023-06-26T08:34:44;27.60;99.90
2565;DHT22;1292;48.020;7.822;2023-06-26T08:37:12;27.70;99.90
2565;DHT22;1292;48.020;7.822;2023-06-26T08:39:39;27.70;99.90
2565;DHT22;1292;48.020;7.822;2023-06-26T08:42:06;27.70;99.90
2565;DHT22;1292;48.020;7.822;2023-06-26T08:44:33;27.70;99.90
2565;DHT22;1292;48.020;7.822;2023-06-26T08:47:00;27.80;99.90
2565;DHT22;1292;48.020;7.822;2023-06-26T08:49:32;27.80;99.90
2565;DHT22;1292;48.020;7.822;2023-06-26T08:52:06;27.70;99.90
2565;DHT22;1292;48.020;7.822;2023-06-26T08:54:42;27.70;99.90
2565;DHT22;1292;48.020;7.822;2023-06-26T08:57:11;27.70;99.90
2565;DHT22;1292;48.020;7.822;2023-06-26T08:59:38;27.70;99.90
2565;DHT22;1292;48.020;7.822;2023-06-26T09:02:06;27.70;99.90
2565;DHT22;1292;48.020;7.822;2023-06-26T09:04:33;27.80;99.90
2565;DHT22;1292;48.020;7.822;2023-06-26T09:07:01;27.90;99.90
2565;DHT22;1292;48.020;7.822;2023-06-26T09:09:28;28.00;99.90
2565;DHT22;1292;48.020;7.822;2023-06-26T09:11:56;28.10;99.90
2565;DHT22;1292;48.020;7.822;2023-06-26T09:14:23;28.10;99.90
2565;DHT22;1292;48.020;7.822;2023-06-26T09:16:50;28.20;99.90
2565;DHT22;1292;48.020;7.822;2023-06-26T09:19:17;28.30;99.90
2565;DHT22;1292;48.020;7.822;2023-06-26T09:21:44;28.30;99.90
2565;DHT22;1292;48.020;7.822;2023-06-26T09:24:11;28.30;99.90
2565;DHT22;1292;48.020;7.822;2023-06-26T09:26:39;28.30;99.90
2565;DHT22;1292;48.020;7.822;2023-06-26T09:29:09;28.20;99.90
2565;DHT22;1292;48.020;7.822;2023-06-26T09:31:37;28.00;99.90
2565;DHT22;1292;48.020;7.822;2023-06-26T09:34:03;28.10;99.90
2565;DHT22;1292;48.020;7.822;2023-06-26T09:36:31;28.00;99.90
2565;DHT22;1292;48.020;7.822;2023-06-26T09:39:00;28.10;99.90
2565;DHT22;1292;48.020;7.822;2023-06-26T09:41:27;28.20;99.90
2565;DHT22;1292;48.020;7.822;2023-06-26T09:43:54;28.30;99.90
2565;DHT22;1292;48.020;7.822;2023-06-26T09:46:26;28.30;99.90
2565;DHT22;1292;48.020;7.822;2023-06-26T09:48:59;28.40;99.90
2565;DHT22;1292;48.020;7.822;2023-06-26T09:51:29;28.40;99.90
2565;DHT22;1292;48.020;7.822;2023-06-26T09:53:56;28.40;99.90
2565;DHT22;1292;48.020;7.822;2023-06-26T09:56:22;28.60;99.90
2565;DHT22;1292;48.020;7.822;2023-06-26T09:58:50;28.80;99.90
2565;DHT22;1292;48.020;7.822;2023-06-26T10:01:18;28.90;99.90
2565;DHT22;1292;48.020;7.822;2023-06-26T10:03:46;28.80;99.90
2565;DHT22;1292;48.020;7.822;2023-06-26T10:06:13;28.90;99.90
2565;DHT22;1292;48.020;7.822;2023-06-26T10:08:41;28.90;99.90
2565;DHT22;1292;48.020;7.822;2023-06-26T10:11:13;28.90;99.90
2565;DHT22;1292;48.020;7.822;2023-06-26T10:13:43;28.90;99.90
2565;DHT22;1292;48.020;7.822;2023-06-26T10:16:12;28.80;99.90
2565;DHT22;1292;48.020;7.822;2023-06-26T10:18:40;28.90;99.90
2565;DHT22;1292;48.020;7.822;2023-06-26T10:21:09;28.90;99.90
2565;DHT22;1292;48.020;7.822;2023-06-26T10:23:39;29.00;99.90
2565;DHT22;1292;48.020;7.822;2023-06-26T10:26:07;29.00;99.90
2565;DHT22;1292;48.020;7.822;2023-06-26T10:28:35;29.00;99.90
2565;DHT22;1292;48.020;7.822;2023-06-26T10:31:04;28.70;99.90
2565;DHT22;1292;48.020;7.822;2023-06-26T10:33:33;28.30;99.90
2565;DHT22;1292;48.020;7.822;2023-06-26T10:36:15;28.20;99.90
2565;DHT22;1292;48.020;7.822;2023-06-26T10:38:50;28.30;99.90
2565;DHT22;1292;48.020;7.822;2023-06-26T10:41:20;28.20;99.90
2565;DHT22;1292;48.020;7.822;2023-06-26T10:43:49;28.10;99.90
2565;DHT22;1292;48.020;7.822;2023-06-26T10:46:18;28.30;99.90
2565;DHT22;1292;48.020;7.822;2023-06-26T10:49:03;28.30;99.90
2565;DHT22;1292;48.020;7.822;2023-06-26T10:51:31;28.30;99.90
2565;DHT22;1292;48.020;7.822;2023-06-26T10:54:00;28.30;99.90
2565;DHT22;1292;48.020;7.822;2023-06-26T10:56:44;28.30;99.90
2565;DHT22;1292;48.020;7.822;2023-06-26T10:59:14;28.20;99.90
2565;DHT22;1292;48.020;7.822;2023-06-26T11:01:41;28.20;99.90
2565;DHT22;1292;48.020;7.822;2023-06-26T11:04:09;28.10;99.90
2565;DHT22;1292;48.020;7.822;2023-06-26T11:06:39;28.30;99.90
2565;DHT22;1292;48.020;7.822;2023-06-26T11:09:10;28.50;99.90
2565;DHT22;1292;48.020;7.822;2023-06-26T11:11:57;28.80;99.90
2565;DHT22;1292;48.020;7.822;2023-06-26T11:14:27;29.20;99.90
2565;DHT22;1292;48.020;7.822;2023-06-26T11:16:55;29.50;99.90
2565;DHT22;1292;48.020;7.822;2023-06-26T11:19:25;29.60;99.90
2565;DHT22;1292;48.020;7.822;2023-06-26T11:21:58;29.60;99.90
2565;DHT22;1292;48.020;7.822;2023-06-26T11:24:26;29.70;99.90
2565;DHT22;1292;48.020;7.822;2023-06-26T11:26:53;29.70;99.90
2565;DHT22;1292;48.020;7.822;2023-06-26T11:29:20;29.70;99.90
2565;DHT22;1292;48.020;7.822;2023-06-26T11:31:46;29.70;99.90
2565;DHT22;1292;48.020;7.822;2023-06-26T11:34:13;29.60;99.90
2565;DHT22;1292;48.020;7.822;2023-06-26T11:36:42;29.30;99.90
2565;DHT22;1292;48.020;7.822;2023-06-26T11:39:13;29.10;99.90
2565;DHT22;1292;48.020;7.822;2023-06-26T11:41:40;28.90;99.90
2565;DHT22;1292;48.020;7.822;2023-06-26T11:44:08;28.70;99.90
2565;DHT22;1292;48.020;7.822;2023-06-26T11:46:36;28.70;99.90
2565;DHT22;1292;48.020;7.822;2023-06-26T11:49:03;28.50;99.90
2565;DHT22;1292;48.020;7.822;2023-06-26T11:51:30;28.30;99.90
2565;DHT22;1292;48.020;7.822;2023-06-26T11:54:00;28.30;99.90
2565;DHT22;1292;48.020;7.822;2023-06-26T11:56:29;28.30;99.90
2565;DHT22;1292;48.020;7.822;2023-06-26T11:58:58;28.20;99.90
2565;DHT22;1292;48.020;7.822;2023-06-26T12:01:27;28.10;99.90
2565;DHT22;1292;48.020;7.822;2023-06-26T12:03:58;27.90;99.90
2565;DHT22;1292;48.020;7.822;2023-06-26T12:06:26;28.00;99.90
2565;DHT22;1292;48.020;7.822;2023-06-26T12:08:53;28.00;99.90
2565;DHT22;1292;48.020;7.822;2023-06-26T12:11:21;28.00;99.90
2565;DHT22;1292;48.020;7.822;2023-06-26T12:13:51;28.10;99.90
2565;DHT22;1292;48.020;7.822;2023-06-26T12:16:18;28.10;99.90
2565;DHT22;1292;48.020;7.822;2023-06-26T12:18:45;28.10;99.90
2565;DHT22;1292;48.020;7.822;2023-06-26T12:21:27;28.00;99.90
2565;DHT22;1292;48.020;7.822;2023-06-26T12:23:58;28.00;99.90
2565;DHT22;1292;48.020;7.822;2023-06-26T12:26:26;28.10;99.90
2565;DHT22;1292;48.020;7.822;2023-06-26T12:29:01;28.30;99.90
2565;DHT22;1292;48.020;7.822;2023-06-26T12:31:29;28.40;99.90
2565;DHT22;1292;48.020;7.822;2023-06-26T12:33:58;28.50;99.90
2565;DHT22;1292;48.020;7.822;2023-06-26T12:36:25;28.70;99.90
2565;DHT22;1292;48.020;7.822;2023-06-26T12:38:53;28.70;99.90
2565;DHT22;1292;48.020;7.822;2023-06-26T12:41:24;28.70;99.90
2565;DHT22;1292;48.020;7.822;2023-06-26T12:43:56;28.70;99.90
2565;DHT22;1292;48.020;7.822;2023-06-26T12:46:33;28.80;99.90
2565;DHT22;1292;48.020;7.822;2023-06-26T12:49:00;28.90;99.90
2565;DHT22;1292;48.020;7.822;2023-06-26T12:51:28;28.90;99.90
2565;DHT22;1292;48.020;7.822;2023-06-26T12:53:55;28.80;99.90
2565;DHT22;1292;48.020;7.822;2023-06-26T12:56:22;28.60;99.90
2565;DHT22;1292;48.020;7.822;2023-06-26T12:58:48;28.40;99.90
2565;DHT22;1292;48.020;7.822;2023-06-26T13:01:17;28.40;99.90
2565;DHT22;1292;48.020;7.822;2023-06-26T13:03:45;28.60;99.90
2565;DHT22;1292;48.020;7.822;2023-06-26T13:06:12;28.90;99.90
2565;DHT22;1292;48.020;7.822;2023-06-26T13:08:40;29.10;99.90
2565;DHT22;1292;48.020;7.822;2023-06-26T13:11:07;29.30;99.90
2565;DHT22;1292;48.020;7.822;2023-06-26T13:13:33;29.30;99.90
2565;DHT22;1292;48.020;7.822;2023-06-26T13:16:00;29.40;99.90
2565;DHT22;1292;48.020;7.822;2023-06-26T13:18:29;29.50;99.90
2565;DHT22;1292;48.020;7.822;2023-06-26T13:20:55;29.70;99.90
2565;DHT22;1292;48.020;7.822;2023-06-26T13:23:22;29.90;99.90
2565;DHT22;1292;48.020;7.822;2023-06-26T13:25:49;30.00;99.90
2565;DHT22;1292;48.020;7.822;2023-06-26T13:28:17;30.10;99.90
2565;DHT22;1292;48.020;7.822;2023-06-26T13:30:44;29.60;99.90
2565;DHT22;1292;48.020;7.822;2023-06-26T13:33:10;29.60;99.90
2565;DHT22;1292;48.020;7.822;2023-06-26T13:35:38;29.60;99.90
2565;DHT22;1292;48.020;7.822;2023-06-26T13:38:05;29.40;99.90
2565;DHT22;1292;48.020;7.822;2023-06-26T13:40:32;29.20;99.90
2565;DHT22;1292;48.020;7.822;2023-06-26T13:42:59;29.00;99.90
2565;DHT22;1292;48.020;7.822;2023-06-26T13:45:26;29.00;99.90
2565;DHT22;1292;48.020;7.822;2023-06-26T13:47:53;29.10;99.90
2565;DHT22;1292;48.020;7.822;2023-06-26T13:50:19;29.10;99.90
2565;DHT22;1292;48.020;7.822;2023-06-26T13:52:48;29.30;99.90
2565;DHT22;1292;48.020;7.822;2023-06-26T13:55:15;29.50;99.90
2565;DHT22;1292;48.020;7.822;2023-06-26T13:57:42;29.50;99.90
2565;DHT22;1292;48.020;7.822;2023-06-26T14:00:10;29.50;99.90
2565;DHT22;1292;48.020;7.822;2023-06-26T14:02:37;29.30;99.90
2565;DHT22;1292;48.020;7.822;2023-06-26T14:05:05;29.30;99.90
2565;DHT22;1292;48.020;7.822;2023-06-26T14:07:31;29.20;99.90
2565;DHT22;1292;48.020;7.822;2023-06-26T14:09:59;29.30;99.90
2565;DHT22;1292;48.020;7.822;2023-06-26T14:12:26;29.50;99.90
2565;DHT22;1292;48.020;7.822;2023-06-26T14:14:53;29.60;99.90
2565;DHT22;1292;48.020;7.822;2023-06-26T14:17:20;29.70;99.90
2565;DHT22;1292;48.020;7.822;2023-06-26T14:19:49;29.60;99.90
2565;DHT22;1292;48.020;7.822;2023-06-26T14:22:16;29.50;99.90
2565;DHT22;1292;48.020;7.822;2023-06-26T14:24:43;29.40;99.90
2565;DHT22;1292;48.020;7.822;2023-06-26T14:27:11;29.30;99.90
2565;DHT22;1292;48.020;7.822;2023-06-26T14:29:38;29.40;99.90
2565;DHT22;1292;48.020;7.822;2023-06-26T14:32:06;29.40;99.90
2565;DHT22;1292;48.020;7.822;2023-06-26T14:34:33;29.60;99.90
2565;DHT22;1292;48.020;7.822;2023-06-26T14:37:00;29.70;99.60
2565;DHT22;1292;48.020;7.822;2023-06-26T14:39:26;29.70;99.70
2565;DHT22;1292;48.020;7.822;2023-06-26T14:41:53;29.70;99.60
2565;DHT22;1292;48.020;7.822;2023-06-26T14:44:21;29.70;98.70
2565;DHT22;1292;48.020;7.822;2023-06-26T14:46:48;29.80;99.50
2565;DHT22;1292;48.020;7.822;2023-06-26T14:49:15;30.00;99.60
2565;DHT22;1292;48.020;7.822;2023-06-26T14:51:42;30.10;98.70
2565;DHT22;1292;48.020;7.822;2023-06-26T14:54:09;30.20;99.10
2565;DHT22;1292;48.020;7.822;2023-06-26T14:56:36;30.20;98.40
2565;DHT22;1292;48.020;7.822;2023-06-26T14:59:02;30.10;99.00
2565;DHT22;1292;48.020;7.822;2023-06-26T15:01:31;29.70;98.70
2565;DHT22;1292;48.020;7.822;2023-06-26T15:03:58;29.60;99.20
2565;DHT22;1292;48.020;7.822;2023-06-26T15:06:24;29.40;99.10
2565;DHT22;1292;48.020;7.822;2023-06-26T15:08:51;29.40;99.60
2565;DHT22;1292;48.020;7.822;2023-06-26T15:11:18;29.30;98.70
2565;DHT22;1292;48.020;7.822;2023-06-26T15:13:45;29.20;98.50
2565;DHT22;1292;48.020;7.822;2023-06-26T15:16:12;29.00;98.60
2565;DHT22;1292;48.020;7.822;2023-06-26T15:18:40;28.90;98.40
2565;DHT22;1292;48.020;7.822;2023-06-26T15:21:07;28.80;98.80
2565;DHT22;1292;48.020;7.822;2023-06-26T15:23:34;28.90;98.40
2565;DHT22;1292;48.020;7.822;2023-06-26T15:26:01;28.80;99.10
2565;DHT22;1292;48.020;7.822;2023-06-26T15:28:28;28.70;98.60
2565;DHT22;1292;48.020;7.822;2023-06-26T15:30:55;28.60;99.00
2565;DHT22;1292;48.020;7.822;2023-06-26T15:33:21;28.70;98.90
2565;DHT22;1292;48.020;7.822;2023-06-26T15:35:49;28.60;98.80
2565;DHT22;1292;48.020;7.822;2023-06-26T15:38:16;28.60;98.90
2565;DHT22;1292;48.020;7.822;2023-06-26T15:40:43;28.40;98.90
2565;DHT22;1292;48.020;7.822;2023-06-26T15:43:10;28.40;99.10
2565;DHT22;1292;48.020;7.822;2023-06-26T15:45:36;28.30;98.70
2565;DHT22;1292;48.020;7.822;2023-06-26T15:48:04;28.30;98.90
2565;DHT22;1292;48.020;7.822;2023-06-26T15:50:31;28.30;99.10
2565;DHT22;1292;48.020;7.822;2023-06-26T15:53:02;28.20;98.60
2565;DHT22;1292;48.020;7.822;2023-06-26T15:55:29;28.20;98.60
2565;DHT22;1292;48.020;7.822;2023-06-26T15:57:56;28.30;98.90
2565;DHT22;1292;48.020;7.822;2023-06-26T16:00:23;28.30;98.60
2565;DHT22;1292;48.020;7.822;2023-06-26T16:02:50;28.20;98.90
2565;DHT22;1292;48.020;7.822;2023-06-26T16:05:17;28.20;99.00
2565;DHT22;1292;48.020;7.822;2023-06-26T16:07:43;28.10;98.90
2565;DHT22;1292;48.020;7.822;2023-06-26T16:10:12;28.00;99.20
2565;DHT22;1292;48.020;7.822;2023-06-26T16:12:38;27.90;98.80
2565;DHT22;1292;48.020;7.822;2023-06-26T16:15:06;27.80;98.70
2565;DHT22;1292;48.020;7.822;2023-06-26T16:17:33;27.70;98.90
2565;DHT22;1292;48.020;7.822;2023-06-26T16:19:59;27.60;99.20
2565;DHT22;1292;48.020;7.822;2023-06-26T16:22:26;27.60;99.00
2565;DHT22;1292;48.020;7.822;2023-06-26T16:24:53;27.60;98.90
2565;DHT22;1292;48.020;7.822;2023-06-26T16:27:21;27.60;99.00
2565;DHT22;1292;48.020;7.822;2023-06-26T16:29:48;27.60;99.10
2565;DHT22;1292;48.020;7.822;2023-06-26T16:32:15;27.60;98.80
2565;DHT22;1292;48.020;7.822;2023-06-26T16:34:42;27.50;98.90
2565;DHT22;1292;48.020;7.822;2023-06-26T16:37:08;27.50;99.00
2565;DHT22;1292;48.020;7.822;2023-06-26T16:39:35;27.40;98.90
2565;DHT22;1292;48.020;7.822;2023-06-26T16:42:02;27.30;99.20
2565;DHT22;1292;48.020;7.822;2023-06-26T16:44:30;27.20;99.00
2565;DHT22;1292;48.020;7.822;2023-06-26T16:46:58;27.20;99.50
2565;DHT22;1292;48.020;7.822;2023-06-26T16:49:25;27.20;99.00
2565;DHT22;1292;48.020;7.822;2023-06-26T16:51:52;27.20;99.30
2565;DHT22;1292;48.020;7.822;2023-06-26T16:54:21;27.30;99.20
2565;DHT22;1292;48.020;7.822;2023-06-26T16:56:48;27.30;99.30
2565;DHT22;1292;48.020;7.822;2023-06-26T16:59:15;27.40;99.00
2565;DHT22;1292;48.020;7.822;2023-06-26T17:01:43;27.40;98.50
2565;DHT22;1292;48.020;7.822;2023-06-26T17:04:10;27.50;99.40
2565;DHT22;1292;48.020;7.822;2023-06-26T17:06:37;27.50;99.00
2565;DHT22;1292;48.020;7.822;2023-06-26T17:09:03;27.50;98.90
2565;DHT22;1292;48.020;7.822;2023-06-26T17:11:30;27.50;98.90
2565;DHT22;1292;48.020;7.822;2023-06-26T17:13:57;27.50;99.20
2565;DHT22;1292;48.020;7.822;2023-06-26T17:16:24;27.40;99.00
2565;DHT22;1292;48.020;7.822;2023-06-26T17:18:52;27.50;98.90
2565;DHT22;1292;48.020;7.822;2023-06-26T17:21:19;27.40;99.00
2565;DHT22;1292;48.020;7.822;2023-06-26T17:23:45;27.30;98.80
2565;DHT22;1292;48.020;7.822;2023-06-26T17:26:12;27.30;98.80
2565;DHT22;1292;48.020;7.822;2023-06-26T17:28:39;27.20;99.10
2565;DHT22;1292;48.020;7.822;2023-06-26T17:31:06;27.30;99.30
2565;DHT22;1292;48.020;7.822;2023-06-26T17:33:33;27.20;99.20
2565;DHT22;1292;48.020;7.822;2023-06-26T17:36:01;27.20;99.00
2565;DHT22;1292;48.020;7.822;2023-06-26T17:38:30;27.00;98.90
2565;DHT22;1292;48.020;7.822;2023-06-26T17:40:58;27.00;99.20
2565;DHT22;1292;48.020;7.822;2023-06-26T17:43:25;27.00;98.60
2565;DHT22;1292;48.020;7.822;2023-06-26T17:45:52;27.00;98.90
2565;DHT22;1292;48.020;7.822;2023-06-26T17:48:19;27.00;98.50
2565;DHT22;1292;48.020;7.822;2023-06-26T17:50:46;27.00;98.80
2565;DHT22;1292;48.020;7.822;2023-06-26T17:53:14;27.00;98.50
2565;DHT22;1292;48.020;7.822;2023-06-26T17:55:43;26.90;98.40
2565;DHT22;1292;48.020;7.822;2023-06-26T17:58:10;26.80;98.60
2565;DHT22;1292;48.020;7.822;2023-06-26T18:00:36;26.70;98.60
2565;DHT22;1292;48.020;7.822;2023-06-26T18:03:03;26.80;98.80
2565;DHT22;1292;48.020;7.822;2023-06-26T18:05:30;26.70;98.80
2565;DHT22;1292;48.020;7.822;2023-06-26T18:07:57;26.60;98.30
2565;DHT22;1292;48.020;7.822;2023-06-26T18:10:25;26.60;98.10
2565;DHT22;1292;48.020;7.822;2023-06-26T18:12:52;26.60;98.00
2565;DHT22;1292;48.020;7.822;2023-06-26T18:15:21;26.60;98.10
2565;DHT22;1292;48.020;7.822;2023-06-26T18:17:48;26.50;97.70
2565;DHT22;1292;48.020;7.822;2023-06-26T18:20:15;26.30;97.60
2565;DHT22;1292;48.020;7.822;2023-06-26T18:22:42;26.20;98.00
2565;DHT22;1292;48.020;7.822;2023-06-26T18:25:09;26.20;98.00
2565;DHT22;1292;48.020;7.822;2023-06-26T18:27:39;26.20;98.00
2565;DHT22;1292;48.020;7.822;2023-06-26T18:30:07;26.10;97.90
2565;DHT22;1292;48.020;7.822;2023-06-26T18:32:33;25.90;98.10
2565;DHT22;1292;48.020;7.822;2023-06-26T18:35:00;25.90;98.50
2565;DHT22;1292;48.020;7.822;2023-06-26T18:37:28;25.90;98.30
2565;DHT22;1292;48.020;7.822;2023-06-26T18:39:54;25.80;98.20
2565;DHT22;1292;48.020;7.822;2023-06-26T18:42:21;25.70;98.10
2565;DHT22;1292;48.020;7.822;2023-06-26T18:44:50;25.60;98.30
2565;DHT22;1292;48.020;7.822;2023-06-26T18:47:17;25.60;98.50
2565;DHT22;1292;48.020;7.822;2023-06-26T18:49:43;25.60;98.30
2565;DHT22;1292;48.020;7.822;2023-06-26T18:52:10;25.60;98.30
2565;DHT22;1292;48.020;7.822;2023-06-26T18:54:37;25.60;98.10
2565;DHT22;1292;48.020;7.822;2023-06-26T18:57:04;25.60;98.30
2565;DHT22;1292;48.020;7.822;2023-06-26T18:59:31;25.60;98.00
2565;DHT22;1292;48.020;7.822;2023-06-26T19:01:59;25.40;98.00
2565;DHT22;1292;48.020;7.822;2023-06-26T19:04:26;25.40;97.90
2565;DHT22;1292;48.020;7.822;2023-06-26T19:06:53;25.20;98.00
2565;DHT22;1292;48.020;7.822;2023-06-26T19:09:20;25.20;98.30
2565;DHT22;1292;48.020;7.822;2023-06-26T19:11:47;25.10;98.40
2565;DHT22;1292;48.020;7.822;2023-06-26T19:14:14;25.00;98.40
2565;DHT22;1292;48.020;7.822;2023-06-26T19:16:40;25.00;98.70
2565;DHT22;1292;48.020;7.822;2023-06-26T19:19:09;24.90;98.70
2565;DHT22;1292;48.020;7.822;2023-06-26T19:21:35;24.80;98.60
2565;DHT22;1292;48.020;7.822;2023-06-26T19:24:02;24.70;98.70
2565;DHT22;1292;48.020;7.822;2023-06-26T19:26:29;24.70;98.70
2565;DHT22;1292;48.020;7.822;2023-06-26T19:28:56;24.50;98.60
2565;DHT22;1292;48.020;7.822;2023-06-26T19:31:23;24.40;98.90
2565;DHT22;1292;48.020;7.822;2023-06-26T19:33:49;24.40;99.00
2565;DHT22;1292;48.020;7.822;2023-06-26T19:36:19;24.40;99.00
2565;DHT22;1292;48.020;7.822;2023-06-26T19:38:47;24.30;99.00
2565;DHT22;1292;48.020;7.822;2023-06-26T19:41:14;24.20;99.00
2565;DHT22;1292;48.020;7.822;2023-06-26T19:43:40;24.10;99.10
2565;DHT22;1292;48.020;7.822;2023-06-26T19:46:07;24.00;99.20
2565;DHT22;1292;48.020;7.822;2023-06-26T19:48:34;23.90;99.30
2565;DHT22;1292;48.020;7.822;2023-06-26T19:51:02;23.90;99.40
2565;DHT22;1292;48.020;7.822;2023-06-26T19:53:31;23.90;99.20
2565;DHT22;1292;48.020;7.822;2023-06-26T19:55:57;23.80;99.40
2565;DHT22;1292;48.020;7.822;2023-06-26T19:58:24;23.70;99.30
2565;DHT22;1292;48.020;7.822;2023-06-26T20:00:51;23.70;99.30
2565;DHT22;1292;48.020;7.822;2023-06-26T20:03:18;23.70;99.50
2565;DHT22;1292;48.020;7.822;2023-06-26T20:05:45;23.60;99.50
2565;DHT22;1292;48.020;7.822;2023-06-26T20:08:11;23.50;99.60
2565;DHT22;1292;48.020;7.822;2023-06-26T20:10:39;23.50;99.70
2565;DHT22;1292;48.020;7.822;2023-06-26T20:13:06;23.50;99.70
2565;DHT22;1292;48.020;7.822;2023-06-26T20:15:33;23.50;99.90
2565;DHT22;1292;48.020;7.822;2023-06-26T20:18:02;23.50;99.90
2565;DHT22;1292;48.020;7.822;2023-06-26T20:20:29;23.50;99.90
2565;DHT22;1292;48.020;7.822;2023-06-26T20:22:56;23.50;99.90
2565;DHT22;1292;48.020;7.822;2023-06-26T20:25:23;23.50;99.90
2565;DHT22;1292;48.020;7.822;2023-06-26T20:27:51;23.50;99.90
2565;DHT22;1292;48.020;7.822;2023-06-26T20:30:18;23.40;99.90
2565;DHT22;1292;48.020;7.822;2023-06-26T20:32:45;23.30;99.90
2565;DHT22;1292;48.020;7.822;2023-06-26T20:35:12;23.20;99.90
2565;DHT22;1292;48.020;7.822;2023-06-26T20:37:39;23.00;99.90
2565;DHT22;1292;48.020;7.822;2023-06-26T20:40:07;22.90;99.90
2565;DHT22;1292;48.020;7.822;2023-06-26T20:42:35;22.80;99.90
2565;DHT22;1292;48.020;7.822;2023-06-26T20:45:05;22.50;99.90
2565;DHT22;1292;48.020;7.822;2023-06-26T20:47:32;22.50;99.90
2565;DHT22;1292;48.020;7.822;2023-06-26T20:50:02;22.50;99.90
2565;DHT22;1292;48.020;7.822;2023-06-26T20:52:30;22.40;99.90
2565;DHT22;1292;48.020;7.822;2023-06-26T20:54:59;22.30;99.90
2565;DHT22;1292;48.020;7.822;2023-06-26T20:57:26;22.20;99.90
2565;DHT22;1292;48.020;7.822;2023-06-26T20:59:53;22.20;99.90
2565;DHT22;1292;48.020;7.822;2023-06-26T21:02:21;22.20;99.90
2565;DHT22;1292;48.020;7.822;2023-06-26T21:04:48;22.20;99.90
2565;DHT22;1292;48.020;7.822;2023-06-26T21:07:15;22.30;99.90
2565;DHT22;1292;48.020;7.822;2023-06-26T21:09:41;22.40;99.90
2565;DHT22;1292;48.020;7.822;2023-06-26T21:12:09;22.40;99.90
2565;DHT22;1292;48.020;7.822;2023-06-26T21:14:35;22.40;99.90
2565;DHT22;1292;48.020;7.822;2023-06-26T21:17:02;22.40;99.90
2565;DHT22;1292;48.020;7.822;2023-06-26T21:19:30;22.30;99.90
2565;DHT22;1292;48.020;7.822;2023-06-26T21:21:57;22.30;99.90
2565;DHT22;1292;48.020;7.822;2023-06-26T21:24:24;22.30;99.90
2565;DHT22;1292;48.020;7.822;2023-06-26T21:26:51;22.20;99.90
2565;DHT22;1292;48.020;7.822;2023-06-26T21:29:18;22.20;99.90
2565;DHT22;1292;48.020;7.822;2023-06-26T21:31:45;22.10;99.90
2565;DHT22;1292;48.020;7.822;2023-06-26T21:34:11;22.10;99.90
2565;DHT22;1292;48.020;7.822;2023-06-26T21:36:40;22.10;99.90
2565;DHT22;1292;48.020;7.822;2023-06-26T21:39:07;22.00;99.90
